createdAt,value
2022-09-18T00:01:53.807Z,47.35
2022-09-18T00:07:32.585Z,47.32
2022-09-18T00:10:00.320Z,47.34
2022-09-18T00:12:28.124Z,47.47
2022-09-18T00:14:55.847Z,47.06
2022-09-18T00:17:23.582Z,47.10
2022-09-18T00:19:51.401Z,46.75
2022-09-18T00:22:20.213Z,47.24
2022-09-18T00:24:47.958Z,46.91
2022-09-18T00:27:15.730Z,47.47
2022-09-18T00:29:44.801Z,47.02
2022-09-18T00:32:12.543Z,47.29
2022-09-18T00:34:41.543Z,47.46
2022-09-18T00:37:09.284Z,47.27
2022-09-18T00:39:37.168Z,47.14
2022-09-18T00:42:05.102Z,47.27
2022-09-18T00:44:32.815Z,47.08
2022-09-18T00:47:00.903Z,47.36
2022-09-18T00:49:28.748Z,47.10
2022-09-18T00:51:56.495Z,47.33
2022-09-18T00:54:24.444Z,46.95
2022-09-18T00:56:52.156Z,47.14
2022-09-18T00:59:20.205Z,47.43
2022-09-18T01:01:47.951Z,46.97
2022-09-18T01:04:15.905Z,47.07
2022-09-18T01:06:43.658Z,47.37
2022-09-18T01:09:11.426Z,47.45
2022-09-18T01:11:39.322Z,47.40
2022-09-18T01:14:07.188Z,47.14
2022-09-18T01:16:35.176Z,47.41
2022-09-18T01:19:03.428Z,47.59
2022-09-18T01:21:31.242Z,47.42
2022-09-18T01:23:58.945Z,46.95
2022-09-18T01:26:26.685Z,47.16
2022-09-18T01:28:54.745Z,47.02
2022-09-18T01:31:22.558Z,47.21
2022-09-18T01:33:50.408Z,47.17
2022-09-18T01:36:18.203Z,47.11
2022-09-18T01:38:45.922Z,47.06
2022-09-18T01:41:13.720Z,47.12
2022-09-18T01:43:41.421Z,47.43
2022-09-18T01:46:09.198Z,47.35
2022-09-18T01:48:36.949Z,47.09
2022-09-18T01:51:05.871Z,47.17
2022-09-18T01:53:33.853Z,47.39
2022-09-18T01:56:01.583Z,46.92
2022-09-18T01:58:29.310Z,46.77
2022-09-18T02:00:56.999Z,47.42
2022-09-18T02:03:25.188Z,47.51
2022-09-18T02:05:52.923Z,47.32
2022-09-18T02:08:20.665Z,47.23
2022-09-18T02:10:48.509Z,46.78
2022-09-18T02:13:16.237Z,47.20
2022-09-18T02:15:44.215Z,47.23
2022-09-18T02:18:12.011Z,46.95
2022-09-18T02:20:39.759Z,47.21
2022-09-18T02:23:07.624Z,47.03
2022-09-18T02:25:35.382Z,47.11
2022-09-18T02:28:03.415Z,47.23
2022-09-18T02:30:31.090Z,46.94
2022-09-18T02:32:58.835Z,46.99
2022-09-18T02:35:26.595Z,47.05
2022-09-18T02:37:54.343Z,46.83
2022-09-18T02:40:22.252Z,47.18
2022-09-18T02:42:50.052Z,47.28
2022-09-18T02:45:17.786Z,46.81
2022-09-18T02:47:45.670Z,46.89
2022-09-18T02:50:13.461Z,47.26
2022-09-18T02:52:41.197Z,47.21
2022-09-18T02:55:08.863Z,47.15
2022-09-18T02:57:36.533Z,47.35
2022-09-18T03:00:04.334Z,47.14
2022-09-18T03:02:32.072Z,47.40
2022-09-18T03:04:59.872Z,47.10
2022-09-18T03:07:27.519Z,46.80
2022-09-18T03:09:59.165Z,47.13
2022-09-18T03:12:26.901Z,46.87
2022-09-18T03:14:55.188Z,46.88
2022-09-18T03:17:22.910Z,46.96
2022-09-18T03:19:50.597Z,47.03
2022-09-18T03:22:18.281Z,47.28
2022-09-18T03:24:45.937Z,47.27
2022-09-18T03:27:13.706Z,46.98
2022-09-18T03:29:41.441Z,46.80
2022-09-18T03:32:09.215Z,47.05
2022-09-18T03:34:36.876Z,46.94
2022-09-18T03:37:04.647Z,46.85
2022-09-18T03:39:32.507Z,47.05
2022-09-18T03:42:00.758Z,46.96
2022-09-18T03:44:28.441Z,46.83
2022-09-18T03:46:56.211Z,46.68
2022-09-18T03:49:25.534Z,46.66
2022-09-18T03:51:53.372Z,46.75
2022-09-18T03:54:21.027Z,46.76
2022-09-18T03:56:49.222Z,47.13
2022-09-18T03:59:16.948Z,47.05
2022-09-18T04:01:44.697Z,46.71
2022-09-18T04:04:13.277Z,47.22
2022-09-18T04:06:41.062Z,47.26
2022-09-18T04:09:08.759Z,47.38
2022-09-18T04:11:36.472Z,46.80
2022-09-18T04:14:04.218Z,47.46
2022-09-18T04:16:32.127Z,46.81
2022-09-18T04:18:59.901Z,47.37
2022-09-18T04:21:27.627Z,47.29
2022-09-18T04:23:55.425Z,47.17
2022-09-18T04:26:26.324Z,47.69
2022-09-18T04:28:54.046Z,47.35
2022-09-18T04:31:22.101Z,47.14
2022-09-18T04:33:50.467Z,47.65
2022-09-18T04:36:18.205Z,47.65
2022-09-18T04:38:45.906Z,47.27
2022-09-18T04:41:13.592Z,47.21
2022-09-18T04:43:41.456Z,47.62
2022-09-18T04:46:09.714Z,47.78
2022-09-18T04:48:37.459Z,48.14
2022-09-18T04:51:05.164Z,48.35
2022-09-18T04:53:35.472Z,48.17
2022-09-18T04:56:03.149Z,48.61
2022-09-18T04:58:31.100Z,48.14
2022-09-18T05:00:59.096Z,48.88
2022-09-18T05:03:26.869Z,48.41
2022-09-18T05:05:55.172Z,48.71
2022-09-18T05:08:22.957Z,48.55
2022-09-18T05:10:51.235Z,47.75
2022-09-18T05:13:19.003Z,48.63
2022-09-18T05:15:46.821Z,46.81
2022-09-18T05:18:14.587Z,43.15
2022-09-18T05:20:42.288Z,37.81
2022-09-18T05:23:09.977Z,32.51
2022-09-18T05:25:37.672Z,29.68
2022-09-18T05:28:05.384Z,27.88
2022-09-18T05:30:33.077Z,26.74
2022-09-18T05:33:00.748Z,27.37
2022-09-18T05:35:28.490Z,27.75
2022-09-18T05:37:56.224Z,28.34
2022-09-18T05:40:24.819Z,28.45
2022-09-18T05:42:53.876Z,29.45
2022-09-18T05:45:21.617Z,30.31
2022-09-18T05:47:49.327Z,30.55
2022-09-18T05:50:17.484Z,32.00
2022-09-18T05:52:45.233Z,32.00
2022-09-18T05:55:12.915Z,33.03
2022-09-18T05:57:40.699Z,34.16
2022-09-18T06:00:08.825Z,34.59
2022-09-18T06:02:36.559Z,34.81
2022-09-18T06:05:04.364Z,35.41
2022-09-18T06:07:32.330Z,36.23
2022-09-18T06:10:00.023Z,36.89
2022-09-18T06:12:27.813Z,37.24
2022-09-18T06:14:55.480Z,37.73
2022-09-18T06:17:23.364Z,38.28
2022-09-18T06:19:51.138Z,38.64
2022-09-18T06:22:19.495Z,39.00
2022-09-18T06:24:47.135Z,39.22
2022-09-18T06:27:14.860Z,39.76
2022-09-18T06:29:43.435Z,39.20
2022-09-18T06:32:11.108Z,38.76
2022-09-18T06:34:38.986Z,38.63
2022-09-18T06:37:06.853Z,38.82
2022-09-18T06:39:35.705Z,39.03
2022-09-18T06:42:03.467Z,39.65
2022-09-18T06:44:31.255Z,39.88
2022-09-18T06:46:59.065Z,40.18
2022-09-18T06:49:27.021Z,40.22
2022-09-18T06:51:55.761Z,40.27
2022-09-18T06:54:23.448Z,40.90
2022-09-18T06:56:51.137Z,40.42
2022-09-18T06:59:19.033Z,40.70
2022-09-18T07:01:46.821Z,41.08
2022-09-18T07:04:15.601Z,41.52
2022-09-18T07:06:43.299Z,41.52
2022-09-18T07:09:11.041Z,41.84
2022-09-18T07:11:39.696Z,41.45
2022-09-18T07:14:08.348Z,41.64
2022-09-18T07:16:36.110Z,42.20
2022-09-18T07:19:03.896Z,42.05
2022-09-18T07:21:31.751Z,42.50
2022-09-18T07:23:59.432Z,42.75
2022-09-18T07:26:27.267Z,42.88
2022-09-18T07:28:54.974Z,43.00
2022-09-18T07:31:22.764Z,42.84
2022-09-18T07:33:50.590Z,43.36
2022-09-18T07:36:18.475Z,43.14
2022-09-18T07:38:46.162Z,42.97
2022-09-18T07:41:14.074Z,43.70
2022-09-18T07:43:41.813Z,43.62
2022-09-18T07:46:09.574Z,43.59
2022-09-18T07:48:37.526Z,43.57
2022-09-18T07:51:05.212Z,43.91
2022-09-18T07:53:33.609Z,43.97
2022-09-18T07:56:01.355Z,44.07
2022-09-18T07:58:29.035Z,43.59
2022-09-18T08:00:57.267Z,44.25
2022-09-18T08:03:25.569Z,43.68
2022-09-18T08:05:53.274Z,44.18
2022-09-18T08:08:20.977Z,44.38
2022-09-18T08:10:48.670Z,43.92
2022-09-18T08:13:16.711Z,44.59
2022-09-18T08:15:44.400Z,44.21
2022-09-18T08:18:12.121Z,44.61
2022-09-18T08:20:39.966Z,44.82
2022-09-18T08:23:08.827Z,44.55
2022-09-18T08:25:37.410Z,45.00
2022-09-18T08:28:05.101Z,44.42
2022-09-18T08:30:32.811Z,44.95
2022-09-18T08:33:00.523Z,44.78
2022-09-18T08:35:28.638Z,44.52
2022-09-18T08:37:56.793Z,44.34
2022-09-18T08:40:25.491Z,44.29
2022-09-18T08:42:53.299Z,44.39
2022-09-18T08:45:20.992Z,44.29
2022-09-18T08:47:48.811Z,44.76
2022-09-18T08:50:16.571Z,44.84
2022-09-18T08:52:44.376Z,44.47
2022-09-18T08:55:12.201Z,44.77
2022-09-18T08:57:41.908Z,44.92
2022-09-18T09:00:10.484Z,44.73
2022-09-18T09:02:38.748Z,44.55
2022-09-18T09:05:06.554Z,45.22
2022-09-18T09:07:34.224Z,44.88
2022-09-18T09:10:04.046Z,44.81
2022-09-18T09:12:31.797Z,45.05
2022-09-18T09:14:59.546Z,45.04
2022-09-18T09:17:27.278Z,45.41
2022-09-18T09:19:55.596Z,45.03
2022-09-18T09:22:23.288Z,45.25
2022-09-18T09:24:51.121Z,45.46
2022-09-18T09:27:18.865Z,45.36
2022-09-18T09:29:46.857Z,44.90
2022-09-18T09:32:14.861Z,45.44
2022-09-18T09:34:44.601Z,45.16
2022-09-18T09:37:12.544Z,45.04
2022-09-18T09:39:40.721Z,45.63
2022-09-18T09:42:08.743Z,45.11
2022-09-18T09:44:37.264Z,45.26
2022-09-18T09:47:05.200Z,45.59
2022-09-18T09:49:33.049Z,45.74
2022-09-18T09:52:02.091Z,45.59
2022-09-18T09:54:31.369Z,45.74
2022-09-18T09:56:59.070Z,45.19
2022-09-18T09:59:27.069Z,45.37
2022-09-18T10:01:54.921Z,45.33
2022-09-18T10:04:23.066Z,45.15
2022-09-18T10:06:50.750Z,45.86
2022-09-18T10:09:18.493Z,45.75
2022-09-18T10:11:46.223Z,45.11
2022-09-18T10:14:13.912Z,45.38
2022-09-18T10:16:41.614Z,45.63
2022-09-18T10:19:09.562Z,45.53
2022-09-18T10:21:37.294Z,45.22
2022-09-18T10:24:04.996Z,45.48
2022-09-18T10:26:32.925Z,45.44
2022-09-18T10:29:00.750Z,45.30
2022-09-18T10:31:28.671Z,45.47
2022-09-18T10:33:56.781Z,45.35
2022-09-18T10:36:24.505Z,45.66
2022-09-18T10:38:52.450Z,45.88
2022-09-18T10:41:20.316Z,45.46
2022-09-18T10:43:48.212Z,45.51
2022-09-18T10:46:15.979Z,45.47
2022-09-18T10:48:43.954Z,45.56
2022-09-18T10:51:11.709Z,45.48
2022-09-18T10:53:39.646Z,45.57
2022-09-18T10:56:07.438Z,45.58
2022-09-18T10:58:35.271Z,45.54
2022-09-18T11:01:03.085Z,45.70
2022-09-18T11:03:31.060Z,45.38
2022-09-18T11:05:58.847Z,45.51
2022-09-18T11:08:26.935Z,45.82
2022-09-18T11:10:55.733Z,45.62
2022-09-18T11:13:23.377Z,45.50
2022-09-18T11:15:52.683Z,45.54
2022-09-18T11:18:20.510Z,45.75
2022-09-18T11:20:48.275Z,45.44
2022-09-18T11:23:16.171Z,45.25
2022-09-18T11:25:46.157Z,45.40
2022-09-18T11:28:13.904Z,45.78
2022-09-18T11:30:41.626Z,45.39
2022-09-18T11:33:09.357Z,45.62
2022-09-18T11:35:37.945Z,45.45
2022-09-18T11:38:07.891Z,45.38
2022-09-18T11:40:35.811Z,45.66
2022-09-18T11:43:05.816Z,45.64
2022-09-18T11:45:33.638Z,45.52
2022-09-18T11:48:01.338Z,45.47
2022-09-18T11:50:29.064Z,45.44
2022-09-18T11:52:56.713Z,45.16
2022-09-18T11:55:24.720Z,45.42
2022-09-18T11:57:52.463Z,45.55
2022-09-18T12:00:21.192Z,44.00
2022-09-18T12:02:49.019Z,40.93
2022-09-18T12:05:16.864Z,38.57
2022-09-18T12:07:43.188Z,37.01
2022-09-18T12:10:10.907Z,36.36
2022-09-18T12:12:38.572Z,36.06
2022-09-18T12:15:06.283Z,36.03
2022-09-18T12:17:34.147Z,36.30
2022-09-18T12:20:02.069Z,36.69
2022-09-18T12:22:29.792Z,37.12
2022-09-18T12:24:57.652Z,37.53
2022-09-18T12:27:27.755Z,37.87
2022-09-18T12:29:55.759Z,38.50
2022-09-18T12:32:23.429Z,38.30
2022-09-18T12:34:51.275Z,39.10
2022-09-18T12:37:19.040Z,37.78
2022-09-18T12:39:47.631Z,38.36
2022-09-18T12:42:15.321Z,38.28
2022-09-18T12:44:43.108Z,38.70
2022-09-18T12:47:10.860Z,38.59
2022-09-18T12:49:38.522Z,39.31
2022-09-18T12:52:06.204Z,39.11
2022-09-18T12:54:34.135Z,39.35
2022-09-18T12:57:01.813Z,40.12
2022-09-18T12:59:29.475Z,40.32
2022-09-18T13:01:57.192Z,40.24
2022-09-18T13:04:24.852Z,40.71
2022-09-18T13:06:52.958Z,40.92
2022-09-18T13:09:25.178Z,40.84
2022-09-18T13:11:53.588Z,41.46
2022-09-18T13:14:21.388Z,39.12
2022-09-18T13:16:50.573Z,39.71
2022-09-18T13:19:21.042Z,40.11
2022-09-18T13:21:48.786Z,40.22
2022-09-18T13:24:16.479Z,40.98
2022-09-18T13:26:45.438Z,41.67
2022-09-18T13:29:13.335Z,41.84
2022-09-18T13:31:41.052Z,42.50
2022-09-18T13:34:08.873Z,42.41
2022-09-18T13:36:36.683Z,42.90
2022-09-18T13:39:04.451Z,43.24
2022-09-18T13:41:32.367Z,43.58
2022-09-18T13:44:00.079Z,39.37
2022-09-18T13:46:27.920Z,31.90
2022-09-18T13:48:56.885Z,27.26
2022-09-18T13:51:26.711Z,23.35
2022-09-18T13:53:56.413Z,21.52
2022-09-18T13:56:24.109Z,20.19
2022-09-18T13:58:52.292Z,19.21
2022-09-18T14:01:20.233Z,18.10
2022-09-18T14:03:49.376Z,17.98
2022-09-18T14:06:17.136Z,18.38
2022-09-18T14:08:44.867Z,18.83
2022-09-18T14:11:16.230Z,19.75
2022-09-18T14:13:44.607Z,20.10
2022-09-18T14:16:12.393Z,21.00
2022-09-18T14:18:40.394Z,22.21
2022-09-18T14:21:08.051Z,23.32
2022-09-18T14:23:35.815Z,24.31
2022-09-18T14:26:03.500Z,26.00
2022-09-18T14:28:31.183Z,26.22
2022-09-18T14:30:59.008Z,27.07
2022-09-18T14:33:26.701Z,28.16
2022-09-18T14:35:54.578Z,29.44
2022-09-18T14:38:22.264Z,30.10
2022-09-18T14:40:49.920Z,30.64
2022-09-18T14:43:17.734Z,31.63
2022-09-18T14:45:45.644Z,32.49
2022-09-18T14:48:15.617Z,33.19
2022-09-18T14:50:43.621Z,34.26
2022-09-18T14:53:11.366Z,34.31
2022-09-18T14:55:39.043Z,34.99
2022-09-18T14:58:06.746Z,35.10
2022-09-18T15:00:34.485Z,35.28
2022-09-18T15:03:02.176Z,35.57
2022-09-18T15:05:29.851Z,36.25
2022-09-18T15:07:58.706Z,36.57
2022-09-18T15:10:26.977Z,36.63
2022-09-18T15:12:54.822Z,36.94
2022-09-18T15:15:23.047Z,36.86
2022-09-18T15:17:50.752Z,37.86
2022-09-18T15:20:18.477Z,38.31
2022-09-18T15:22:46.312Z,38.42
2022-09-18T15:25:14.009Z,38.60
2022-09-18T15:27:41.749Z,39.06
2022-09-18T15:30:09.742Z,38.76
2022-09-18T15:32:38.546Z,38.99
2022-09-18T15:35:06.472Z,39.31
2022-09-18T15:37:37.940Z,39.52
2022-09-18T15:40:05.706Z,39.26
2022-09-18T15:42:33.551Z,38.73
2022-09-18T15:45:01.383Z,39.30
2022-09-18T15:47:29.205Z,39.33
2022-09-18T15:49:56.900Z,39.43
2022-09-18T15:52:24.571Z,39.74
2022-09-18T15:54:52.259Z,39.29
2022-09-18T15:57:20.052Z,39.46
2022-09-18T15:59:48.252Z,39.52
2022-09-18T16:02:16.013Z,39.99
2022-09-18T16:04:43.826Z,40.38
2022-09-18T16:07:12.088Z,39.70
2022-09-18T16:09:40.285Z,40.25
2022-09-18T16:12:08.046Z,40.25
2022-09-18T16:14:36.054Z,40.23
2022-09-18T16:17:04.144Z,40.63
2022-09-18T16:19:31.895Z,40.88
2022-09-18T16:21:59.579Z,40.56
2022-09-18T16:24:28.570Z,40.98
2022-09-18T16:26:56.243Z,41.39
2022-09-18T16:29:24.118Z,40.92
2022-09-18T16:31:51.830Z,41.00
2022-09-18T16:34:19.507Z,41.01
2022-09-18T16:36:47.180Z,41.71
2022-09-18T16:39:14.948Z,41.12
2022-09-18T16:41:42.702Z,41.43
2022-09-18T16:44:11.630Z,41.54
2022-09-18T16:46:39.424Z,41.81
2022-09-18T16:49:07.177Z,41.47
2022-09-18T16:51:35.334Z,41.92
2022-09-18T16:54:02.999Z,41.83
2022-09-18T16:56:30.733Z,41.64
2022-09-18T16:58:58.427Z,42.28
2022-09-18T17:01:26.343Z,42.14
2022-09-18T17:03:54.156Z,42.28
2022-09-18T17:06:21.823Z,42.19
2022-09-18T17:08:49.746Z,42.38
2022-09-18T17:11:18.284Z,42.26
2022-09-18T17:13:46.223Z,42.69
2022-09-18T17:16:26.107Z,42.55
2022-09-18T17:19:02.018Z,42.79
2022-09-18T17:21:29.986Z,42.60
2022-09-18T17:23:58.045Z,42.19
2022-09-18T17:26:28.797Z,42.37
2022-09-18T17:28:56.534Z,42.74
2022-09-18T17:31:24.534Z,42.98
2022-09-18T17:33:52.287Z,42.84
2022-09-18T17:36:20.266Z,42.51
2022-09-18T17:38:48.191Z,43.07
2022-09-18T17:41:15.931Z,42.82
2022-09-18T17:43:43.835Z,43.14
2022-09-18T17:46:11.694Z,43.22
2022-09-18T17:48:39.446Z,42.91
2022-09-18T17:51:12.047Z,42.91
2022-09-18T17:53:39.913Z,42.29
2022-09-18T17:56:07.718Z,42.60
2022-09-18T17:58:38.803Z,42.30
2022-09-18T18:01:06.729Z,41.69
2022-09-18T18:03:34.521Z,41.29
2022-09-18T18:06:03.026Z,40.90
2022-09-18T18:08:30.759Z,41.28
2022-09-18T18:10:58.512Z,40.60
2022-09-18T18:13:26.727Z,41.33
2022-09-18T18:15:54.520Z,41.27
2022-09-18T18:18:22.472Z,41.31
2022-09-18T18:20:50.511Z,41.00
2022-09-18T18:23:18.264Z,41.51
2022-09-18T18:25:47.199Z,41.50
2022-09-18T18:28:14.939Z,41.59
2022-09-18T18:30:46.104Z,41.25
2022-09-18T18:33:13.959Z,42.02
2022-09-18T18:35:41.864Z,42.04
2022-09-18T18:38:09.666Z,41.89
2022-09-18T18:40:39.020Z,42.38
2022-09-18T18:43:07.496Z,41.98
2022-09-18T18:45:37.668Z,42.35
2022-09-18T18:48:09.263Z,42.00
2022-09-18T18:50:37.677Z,42.64
2022-09-18T18:53:05.563Z,42.40
2022-09-18T18:55:33.620Z,42.38
2022-09-18T18:58:01.436Z,42.62
2022-09-18T19:00:29.650Z,42.21
2022-09-18T19:02:57.416Z,42.99
2022-09-18T19:05:30.602Z,43.05
2022-09-18T19:07:58.814Z,42.41
2022-09-18T19:10:27.341Z,42.82
2022-09-18T19:12:57.226Z,43.08
2022-09-18T19:15:24.948Z,42.59
2022-09-18T19:17:53.014Z,42.94
2022-09-18T19:20:21.129Z,42.95
2022-09-18T19:22:53.562Z,42.82
2022-09-18T19:25:21.287Z,43.12
2022-09-18T19:27:49.143Z,43.32
2022-09-18T19:30:17.756Z,43.18
2022-09-18T19:32:45.529Z,43.23
2022-09-18T19:35:13.243Z,43.25
2022-09-18T19:37:42.074Z,42.86
2022-09-18T19:40:13.941Z,43.00
2022-09-18T19:42:41.651Z,43.00
2022-09-18T19:45:09.351Z,43.12
2022-09-18T19:47:37.062Z,42.69
2022-09-18T19:50:05.424Z,43.09
2022-09-18T19:52:33.133Z,43.51
2022-09-18T19:55:00.911Z,43.36
2022-09-18T19:57:30.172Z,43.62
2022-09-18T19:59:59.483Z,43.81
2022-09-18T20:02:27.262Z,43.44
2022-09-18T20:04:55.134Z,43.56
2022-09-18T20:07:22.819Z,43.81
2022-09-18T20:09:51.090Z,44.07
2022-09-18T20:12:18.785Z,43.34
2022-09-18T20:14:46.600Z,43.88
2022-09-18T20:17:14.368Z,43.58
2022-09-18T20:19:42.311Z,43.74
2022-09-18T20:22:10.097Z,44.20
2022-09-18T20:24:37.926Z,44.00
2022-09-18T20:27:05.645Z,43.72
2022-09-18T20:29:33.703Z,43.46
2022-09-18T20:32:02.790Z,43.67
2022-09-18T20:34:30.512Z,44.15
2022-09-18T20:36:59.092Z,44.18
2022-09-18T20:39:27.080Z,43.99
2022-09-18T20:41:57.296Z,43.99
2022-09-18T20:44:25.272Z,43.86
2022-09-18T20:46:56.797Z,44.13
2022-09-18T20:49:24.916Z,43.91
2022-09-18T20:51:52.639Z,44.23
2022-09-18T20:54:23.403Z,44.13
2022-09-18T20:56:51.106Z,44.13
2022-09-18T20:59:18.796Z,43.95
2022-09-18T21:01:47.190Z,43.65
2022-09-18T21:04:17.296Z,44.20
2022-09-18T21:06:45.355Z,44.00
2022-09-18T21:09:13.046Z,44.44
2022-09-18T21:11:42.198Z,43.99
2022-09-18T21:14:10.122Z,43.90
2022-09-18T21:16:40.463Z,44.14
2022-09-18T21:19:08.262Z,44.26
2022-09-18T21:21:36.168Z,43.78
2022-09-18T21:24:04.258Z,43.95
2022-09-18T21:26:33.051Z,43.87
2022-09-18T21:29:00.831Z,43.99
2022-09-18T21:31:28.637Z,44.32
2022-09-18T21:33:57.279Z,44.06
2022-09-18T21:36:24.953Z,43.89
2022-09-18T21:38:52.629Z,44.27
2022-09-18T21:41:20.310Z,44.14
2022-09-18T21:43:50.922Z,44.21
2022-09-18T21:46:19.273Z,44.23
2022-09-18T21:48:47.460Z,44.64
2022-09-18T21:51:15.129Z,44.26
2022-09-18T21:53:42.952Z,44.04
2022-09-18T21:56:10.889Z,44.37
2022-09-18T21:58:40.670Z,44.26
2022-09-18T22:01:08.803Z,44.28
2022-09-18T22:03:37.131Z,44.26
2022-09-18T22:06:04.852Z,44.55
2022-09-18T22:08:32.531Z,44.52
2022-09-18T22:11:00.254Z,44.33
2022-09-18T22:13:28.305Z,44.44
2022-09-18T22:15:56.943Z,44.77
2022-09-18T22:18:24.757Z,44.40
2022-09-18T22:20:52.884Z,44.60
2022-09-18T22:23:20.589Z,44.46
2022-09-18T22:25:48.340Z,44.37
2022-09-18T22:28:16.357Z,44.38
2022-09-18T22:30:44.222Z,44.96
2022-09-18T22:33:12.028Z,44.46
2022-09-18T22:35:39.699Z,44.84
2022-09-18T22:38:07.470Z,44.86
2022-09-18T22:40:35.238Z,44.47
2022-09-18T22:43:02.964Z,44.96
2022-09-18T22:45:30.786Z,44.72
2022-09-18T22:47:58.458Z,44.79
2022-09-18T22:50:26.267Z,44.87
2022-09-18T22:52:54.072Z,44.93
2022-09-18T22:55:21.791Z,44.62
2022-09-18T22:57:49.486Z,44.60
2022-09-18T23:00:17.168Z,45.02
2022-09-18T23:02:44.979Z,44.66
2022-09-18T23:05:12.901Z,44.61
2022-09-18T23:07:40.672Z,44.93
2022-09-18T23:10:08.361Z,44.72
2022-09-18T23:12:36.049Z,44.75
2022-09-18T23:15:03.764Z,44.75
2022-09-18T23:17:31.461Z,44.97
2022-09-18T23:19:59.523Z,45.10
2022-09-18T23:22:27.228Z,45.06
2022-09-18T23:24:54.971Z,44.92
2022-09-18T23:27:22.639Z,44.79
2022-09-18T23:29:50.641Z,44.77
2022-09-18T23:32:18.474Z,45.35
2022-09-18T23:34:46.509Z,45.04
2022-09-18T23:37:14.227Z,44.85
2022-09-18T23:39:42.109Z,44.92
2022-09-18T23:42:10.946Z,45.24
2022-09-18T23:44:38.759Z,45.17
2022-09-18T23:47:06.729Z,45.14
2022-09-18T23:49:34.466Z,45.08
2022-09-18T23:52:02.606Z,44.92
2022-09-18T23:54:30.379Z,44.83
2022-09-18T23:56:58.084Z,45.03
2022-09-18T23:59:25.895Z,44.86
